createdAt,value
2019-02-21T00:04:49.897Z,12.00
2019-02-21T00:07:30.667Z,11.77
2019-02-21T00:10:11.546Z,9.87
2019-02-21T00:12:52.084Z,12.67
2019-02-21T00:15:33.394Z,12.70
2019-02-21T00:18:14.044Z,16.60
2019-02-21T00:20:55.102Z,15.33
2019-02-21T00:23:35.570Z,20.33
2019-02-21T00:26:16.320Z,16.00
2019-02-21T00:28:56.945Z,13.40
2019-02-21T00:31:40.015Z,11.63
2019-02-21T00:34:20.498Z,15.87
2019-02-21T00:37:00.916Z,9.97
2019-02-21T00:39:41.582Z,16.53
2019-02-21T00:42:22.250Z,12.30
2019-02-21T00:45:02.815Z,13.10
2019-02-21T00:47:43.711Z,11.50
2019-02-21T00:50:24.610Z,16.23
2019-02-21T00:53:05.367Z,17.03
2019-02-21T00:55:46.068Z,15.23
2019-02-21T00:58:27.674Z,11.67
2019-02-21T01:01:08.974Z,10.13
2019-02-21T01:03:49.376Z,10.80
2019-02-21T01:06:29.889Z,11.50
2019-02-21T01:09:10.726Z,13.70
2019-02-21T01:11:51.549Z,12.60
2019-02-21T01:14:32.277Z,20.33
2019-02-21T01:17:13.361Z,12.10
2019-02-21T01:19:54.500Z,13.73
2019-02-21T01:22:35.281Z,13.93
2019-02-21T01:25:16.190Z,11.93
2019-02-21T01:27:57.544Z,15.77
2019-02-21T01:30:39.089Z,15.67
2019-02-21T01:33:19.822Z,9.43
2019-02-21T01:36:00.648Z,11.53
2019-02-21T01:38:41.119Z,8.13
2019-02-21T01:41:21.890Z,30.00
2019-02-21T01:44:04.639Z,11.00
2019-02-21T01:46:45.864Z,9.43
2019-02-21T01:49:26.430Z,21.50
2019-02-21T01:52:07.258Z,10.67
2019-02-21T01:54:47.999Z,9.27
2019-02-21T01:57:28.756Z,13.47
2019-02-21T02:00:09.471Z,10.83
2019-02-21T02:02:50.271Z,20.80
2019-02-21T02:05:31.006Z,13.47
2019-02-21T02:08:11.823Z,11.77
2019-02-21T02:10:52.693Z,12.87
2019-02-21T02:13:33.287Z,11.30
2019-02-21T02:16:14.053Z,14.43
2019-02-21T02:18:54.921Z,14.03
2019-02-21T02:21:36.048Z,13.63
2019-02-21T02:24:16.984Z,14.97
2019-02-21T02:26:57.687Z,9.00
2019-02-21T02:29:38.392Z,15.10
2019-02-21T02:32:19.351Z,12.33
2019-02-21T02:35:00.054Z,14.13
2019-02-21T02:37:40.603Z,19.47
2019-02-21T02:40:21.093Z,21.33
2019-02-21T02:43:01.841Z,12.47
2019-02-21T02:45:42.412Z,11.87
2019-02-21T02:48:23.280Z,17.43
2019-02-21T02:51:04.048Z,16.53
2019-02-21T02:53:44.802Z,15.70
2019-02-21T02:56:25.675Z,15.03
2019-02-21T02:59:06.416Z,20.00
2019-02-21T03:01:47.213Z,14.13
2019-02-21T03:04:28.220Z,17.10
2019-02-21T03:07:08.864Z,22.60
2019-02-21T03:09:49.501Z,14.80
2019-02-21T03:12:30.300Z,18.53
2019-02-21T03:15:10.892Z,17.77
2019-02-21T03:17:51.683Z,13.50
2019-02-21T03:20:32.373Z,18.93
2019-02-21T03:23:12.774Z,26.37
2019-02-21T03:25:53.965Z,13.40
2019-02-21T03:28:34.716Z,22.13
2019-02-21T03:31:15.374Z,20.27
2019-02-21T03:33:55.802Z,22.63
2019-02-21T03:36:36.550Z,17.80
2019-02-21T03:39:17.684Z,17.70
2019-02-21T03:41:58.487Z,19.80
2019-02-21T03:44:38.990Z,20.60
2019-02-21T03:47:19.687Z,21.93
2019-02-21T03:50:00.032Z,27.63
2019-02-21T03:52:40.581Z,28.37
2019-02-21T03:55:21.112Z,21.63
2019-02-21T03:58:01.903Z,34.50
2019-02-21T04:00:42.272Z,29.27
2019-02-21T04:03:23.117Z,25.30
2019-02-21T04:06:03.749Z,26.27
2019-02-21T04:08:44.296Z,20.17
2019-02-21T04:11:25.009Z,21.23
2019-02-21T04:14:05.409Z,18.80
2019-02-21T04:16:45.935Z,25.80
2019-02-21T04:19:26.927Z,23.50
2019-02-21T04:22:07.526Z,20.83
2019-02-21T04:24:48.083Z,29.80
2019-02-21T04:27:28.995Z,30.37
2019-02-21T04:30:09.707Z,24.80
2019-02-21T04:32:50.360Z,28.13
2019-02-21T04:35:31.263Z,26.33
2019-02-21T04:38:12.135Z,25.40
2019-02-21T04:40:52.710Z,34.60
2019-02-21T04:43:33.368Z,29.20
2019-02-21T04:46:14.189Z,35.03
2019-02-21T04:48:54.740Z,34.77
2019-02-21T04:51:35.633Z,28.50
2019-02-21T04:54:16.473Z,35.07
2019-02-21T04:56:57.215Z,26.10
2019-02-21T04:59:38.077Z,31.30
2019-02-21T05:05:42.299Z,37.97
2019-02-21T05:08:22.931Z,29.60
2019-02-21T05:11:03.459Z,30.07
2019-02-21T05:13:44.331Z,34.73
2019-02-21T05:16:25.146Z,31.10
2019-02-21T05:19:05.956Z,31.13
2019-02-21T05:21:46.430Z,30.00
2019-02-21T05:24:27.187Z,34.90
2019-02-21T05:27:12.424Z,35.10
2019-02-21T05:29:52.878Z,27.60
2019-02-21T05:32:52.805Z,33.57
2019-02-21T05:35:41.461Z,33.67
2019-02-21T05:38:31.913Z,34.90
2019-02-21T05:41:31.496Z,34.43
2019-02-21T05:44:38.619Z,38.63
2019-02-21T05:47:38.731Z,43.70
2019-02-21T05:50:38.238Z,38.50
2019-02-21T05:56:46.170Z,35.07
2019-02-21T05:59:34.935Z,43.70
2019-02-21T06:02:22.537Z,40.40
2019-02-21T06:05:22.051Z,40.63
2019-02-21T06:08:09.387Z,39.20
2019-02-21T06:11:08.978Z,37.30
2019-02-21T06:14:01.307Z,42.57
2019-02-21T06:16:47.869Z,35.53
2019-02-21T06:19:38.803Z,41.57
2019-02-21T06:22:27.947Z,35.93
2019-02-21T06:25:19.605Z,44.43
2019-02-21T06:28:22.116Z,34.57
2019-02-21T06:31:05.838Z,39.17
2019-02-21T06:33:49.344Z,40.50
2019-02-21T06:36:29.522Z,45.43
2019-02-21T06:39:11.041Z,35.37
2019-02-21T06:41:58.981Z,51.20
2019-02-21T06:44:34.141Z,36.70
2019-02-21T06:47:15.016Z,38.10
2019-02-21T06:49:55.629Z,46.63
2019-02-21T06:52:36.524Z,40.07
2019-02-21T06:55:20.449Z,42.87
2019-02-21T06:58:00.720Z,41.50
2019-02-21T07:00:41.429Z,41.27
2019-02-21T07:03:22.607Z,43.73
2019-02-21T07:06:03.538Z,38.23
2019-02-21T07:08:44.053Z,35.10
2019-02-21T07:11:25.351Z,40.50
2019-02-21T07:14:06.558Z,33.87
2019-02-21T07:16:47.194Z,39.87
2019-02-21T07:19:16.172Z,39.20
2019-02-21T07:22:06.190Z,39.57
2019-02-21T07:28:10.934Z,38.40
2019-02-21T07:30:43.026Z,56.27
2019-02-21T07:33:28.271Z,43.63
2019-02-21T07:36:07.120Z,33.40
2019-02-21T07:38:48.075Z,33.63
2019-02-21T07:41:27.307Z,38.20
2019-02-21T07:44:15.474Z,41.17
2019-02-21T07:46:56.011Z,34.67
2019-02-21T07:49:36.696Z,30.10
2019-02-21T07:52:17.667Z,38.53
2019-02-21T07:55:01.813Z,38.77
2019-02-21T07:57:39.647Z,34.37
2019-02-21T08:00:27.753Z,35.67
2019-02-21T08:03:09.206Z,32.80
2019-02-21T08:05:50.539Z,34.37
2019-02-21T08:08:32.477Z,39.07
2019-02-21T08:11:13.189Z,31.67
2019-02-21T08:13:53.892Z,35.70
2019-02-21T08:16:34.680Z,35.97
2019-02-21T08:19:15.471Z,34.70
2019-02-21T08:21:56.154Z,33.80
2019-02-21T08:24:36.728Z,39.53
2019-02-21T08:27:17.678Z,37.77
2019-02-21T08:29:58.346Z,33.60
2019-02-21T08:32:58.328Z,34.63
2019-02-21T08:35:38.891Z,38.77
2019-02-21T08:38:19.313Z,37.33
2019-02-21T08:40:59.598Z,31.43
2019-02-21T08:43:40.232Z,38.37
2019-02-21T08:46:21.104Z,36.40
2019-02-21T08:49:01.853Z,43.33
2019-02-21T08:51:42.625Z,36.83
2019-02-21T08:54:23.444Z,38.77
2019-02-21T08:57:04.180Z,35.27
2019-02-21T08:59:45.469Z,36.80
2019-02-21T09:02:26.371Z,34.63
2019-02-21T09:05:09.411Z,37.73
2019-02-21T09:07:49.966Z,33.73
2019-02-21T09:10:31.030Z,31.43
2019-02-21T09:13:11.708Z,42.60
2019-02-21T09:15:52.476Z,32.70
2019-02-21T09:18:33.544Z,37.43
2019-02-21T09:21:14.384Z,29.43
2019-02-21T09:23:56.750Z,34.80
2019-02-21T09:26:37.984Z,34.60
2019-02-21T09:29:18.692Z,39.30
2019-02-21T09:31:59.136Z,35.70
2019-02-21T09:34:39.794Z,36.70
2019-02-21T09:37:20.520Z,35.63
2019-02-21T09:40:01.538Z,32.77
2019-02-21T09:42:42.532Z,35.57
2019-02-21T09:45:23.313Z,37.97
2019-02-21T09:48:04.074Z,33.83
2019-02-21T09:50:44.836Z,34.43
2019-02-21T09:53:25.494Z,31.63
2019-02-21T09:56:06.095Z,36.20
2019-02-21T09:58:46.939Z,32.63
2019-02-21T10:01:27.922Z,34.27
2019-02-21T10:04:09.254Z,33.93
2019-02-21T10:06:49.829Z,28.93
2019-02-21T10:09:30.566Z,29.50
2019-02-21T10:12:11.510Z,36.63
2019-02-21T10:14:52.099Z,28.83
2019-02-21T10:17:32.773Z,35.57
2019-02-21T10:20:13.310Z,27.70
2019-02-21T10:26:27.086Z,30.40
2019-02-21T10:29:08.526Z,29.30
2019-02-21T10:31:48.912Z,29.60
2019-02-21T10:34:29.708Z,30.40
2019-02-21T10:37:10.944Z,32.37
2019-02-21T10:39:51.760Z,29.70
2019-02-21T10:42:33.071Z,35.27
2019-02-21T10:45:13.724Z,31.13
2019-02-21T10:47:54.880Z,29.37
2019-02-21T10:50:36.212Z,31.70
2019-02-21T10:53:16.932Z,28.03
2019-02-21T10:55:57.640Z,31.00
2019-02-21T10:58:38.434Z,26.13
2019-02-21T11:01:18.968Z,28.43
2019-02-21T11:03:59.732Z,39.73
2019-02-21T11:06:40.312Z,38.87
2019-02-21T11:09:21.060Z,26.17
2019-02-21T11:12:01.856Z,27.47
2019-02-21T11:14:47.464Z,34.13
2019-02-21T11:17:25.991Z,26.43
2019-02-21T11:20:06.954Z,25.27
2019-02-21T11:22:47.474Z,31.17
2019-02-21T11:25:28.228Z,25.70
2019-02-21T11:28:08.922Z,23.47
2019-02-21T11:30:49.678Z,23.50
2019-02-21T11:33:30.446Z,25.00
2019-02-21T11:36:11.166Z,27.97
2019-02-21T11:38:51.984Z,22.77
2019-02-21T11:41:32.762Z,25.43
2019-02-21T11:44:13.741Z,17.20
2019-02-21T11:46:54.498Z,26.40
2019-02-21T11:49:42.718Z,25.20
2019-02-21T11:52:30.862Z,16.53
2019-02-21T11:55:11.490Z,20.90
2019-02-21T11:57:52.412Z,25.20
2019-02-21T12:00:33.047Z,23.80
2019-02-21T12:03:13.938Z,21.90
2019-02-21T12:05:54.769Z,20.10
2019-02-21T12:08:35.390Z,21.97
2019-02-21T12:11:16.686Z,20.50
2019-02-21T12:14:00.668Z,16.50
2019-02-21T12:16:41.221Z,22.53
2019-02-21T12:19:21.830Z,18.57
2019-02-21T12:22:02.515Z,23.17
2019-02-21T12:24:43.363Z,21.07
2019-02-21T12:27:24.263Z,19.23
2019-02-21T12:30:05.341Z,16.43
2019-02-21T12:32:46.274Z,22.90
2019-02-21T12:35:29.940Z,17.70
2019-02-21T12:38:10.056Z,21.43
2019-02-21T12:40:50.746Z,26.03
2019-02-21T12:43:32.005Z,16.70
2019-02-21T12:46:13.625Z,19.43
2019-02-21T12:48:54.560Z,18.90
2019-02-21T12:51:35.122Z,25.43
2019-02-21T12:54:16.005Z,21.80
2019-02-21T12:56:57.305Z,21.63
2019-02-21T12:59:38.354Z,19.07
2019-02-21T13:02:19.038Z,24.47
2019-02-21T13:05:00.496Z,15.00
2019-02-21T13:07:41.579Z,16.93
2019-02-21T13:10:22.606Z,20.07
2019-02-21T13:13:03.604Z,13.97
2019-02-21T13:15:44.183Z,10.03
2019-02-21T13:18:24.784Z,13.67
2019-02-21T13:21:05.601Z,10.43
2019-02-21T13:23:46.461Z,20.80
2019-02-21T13:26:26.958Z,11.73
2019-02-21T13:29:07.902Z,11.07
2019-02-21T13:31:48.921Z,14.43
2019-02-21T13:34:29.974Z,10.50
2019-02-21T13:37:27.958Z,10.00
2019-02-21T13:39:47.684Z,20.20
2019-02-21T13:42:35.866Z,11.70
2019-02-21T13:45:23.982Z,14.27
2019-02-21T13:48:05.065Z,9.77
2019-02-21T13:50:46.777Z,9.83
2019-02-21T13:53:27.224Z,11.43
2019-02-21T13:56:07.985Z,14.10
2019-02-21T13:58:49.237Z,12.20
2019-02-21T14:01:28.374Z,16.07
2019-02-21T14:04:09.374Z,20.37
2019-02-21T14:06:50.125Z,17.70
2019-02-21T14:09:30.939Z,9.87
2019-02-21T14:12:14.359Z,14.37
2019-02-21T14:14:55.454Z,14.63
2019-02-21T14:17:36.371Z,13.10
2019-02-21T14:20:17.618Z,13.43
2019-02-21T14:22:58.428Z,13.17
2019-02-21T14:25:40.971Z,12.40
2019-02-21T14:28:22.310Z,13.10
2019-02-21T14:31:03.094Z,12.43
2019-02-21T14:33:43.762Z,15.03
2019-02-21T14:36:24.560Z,9.30
2019-02-21T14:39:05.637Z,12.83
2019-02-21T14:41:46.721Z,15.87
2019-02-21T14:44:27.423Z,13.97
2019-02-21T14:47:08.342Z,16.73
2019-02-21T14:49:48.826Z,10.63
2019-02-21T14:52:29.578Z,17.17
2019-02-21T14:55:10.375Z,17.43
2019-02-21T14:57:51.136Z,12.87
2019-02-21T15:00:31.963Z,13.47
2019-02-21T15:03:21.446Z,14.90
2019-02-21T15:05:55.800Z,18.67
2019-02-21T15:08:36.772Z,13.83
2019-02-21T15:11:17.583Z,10.70
2019-02-21T15:13:59.299Z,15.93
2019-02-21T15:16:40.488Z,17.80
2019-02-21T15:19:21.253Z,16.87
2019-02-21T15:22:02.219Z,16.73
2019-02-21T15:24:43.439Z,11.20
2019-02-21T15:27:24.366Z,14.93
2019-02-21T15:30:05.495Z,16.67
2019-02-21T15:32:46.450Z,14.50
2019-02-21T15:35:27.283Z,11.13
2019-02-21T15:38:19.032Z,14.43
2019-02-21T15:40:50.732Z,10.20
2019-02-21T15:43:31.461Z,13.03
2019-02-21T15:46:12.243Z,13.53
2019-02-21T15:48:53.152Z,14.87
2019-02-21T15:51:33.842Z,14.60
2019-02-21T15:54:14.639Z,16.20
2019-02-21T15:56:55.547Z,13.43
2019-02-21T15:59:36.637Z,12.10
2019-02-21T16:02:17.368Z,15.90
2019-02-21T16:04:58.644Z,13.83
2019-02-21T16:07:39.729Z,18.80
2019-02-21T16:10:20.402Z,15.70
2019-02-21T16:13:04.184Z,17.20
2019-02-21T16:15:44.228Z,10.80
2019-02-21T16:18:25.341Z,18.03
2019-02-21T16:21:06.221Z,25.53
2019-02-21T16:23:47.193Z,13.73
2019-02-21T16:26:31.542Z,19.90
2019-02-21T16:29:12.585Z,14.73
2019-02-21T16:31:53.693Z,16.33
2019-02-21T16:34:34.078Z,16.37
2019-02-21T16:37:15.057Z,12.63
2019-02-21T16:39:55.863Z,20.10
2019-02-21T16:42:36.862Z,13.50
2019-02-21T16:45:17.413Z,12.70
2019-02-21T16:47:58.046Z,14.63
2019-02-21T16:50:38.632Z,15.25
2019-02-21T16:53:19.523Z,12.53
2019-02-21T16:55:59.970Z,14.83
2019-02-21T16:58:42.811Z,12.30
2019-02-21T17:01:23.291Z,12.03
2019-02-21T17:04:04.169Z,12.43
2019-02-21T17:06:44.593Z,12.57
2019-02-21T17:09:25.265Z,23.03
2019-02-21T17:12:06.058Z,15.40
2019-02-21T17:14:47.613Z,15.23
2019-02-21T17:17:28.875Z,14.07
2019-02-21T17:20:09.761Z,10.60
2019-02-21T17:22:50.617Z,18.30
2019-02-21T17:25:31.357Z,13.53
2019-02-21T17:28:12.481Z,13.97
2019-02-21T17:30:53.254Z,10.30
2019-02-21T17:33:33.956Z,18.03
2019-02-21T17:36:14.721Z,14.13
2019-02-21T17:38:55.462Z,12.63
2019-02-21T17:41:35.847Z,13.23
2019-02-21T17:44:16.873Z,13.67
2019-02-21T17:46:57.477Z,13.23
2019-02-21T17:49:38.526Z,14.63
2019-02-21T17:52:19.349Z,13.77
2019-02-21T17:55:00.238Z,16.43
2019-02-21T17:57:40.782Z,14.00
2019-02-21T18:00:26.728Z,17.27
2019-02-21T18:03:09.719Z,17.17
2019-02-21T18:05:50.729Z,15.83
2019-02-21T18:08:31.681Z,15.43
2019-02-21T18:11:12.922Z,13.53
2019-02-21T18:13:53.793Z,19.30
2019-02-21T18:16:34.681Z,18.37
2019-02-21T18:19:15.483Z,18.43
2019-02-21T18:21:56.160Z,20.63
2019-02-21T18:24:37.109Z,19.13
2019-02-21T18:27:17.890Z,15.97
2019-02-21T18:29:58.697Z,21.83
2019-02-21T18:32:39.285Z,17.23
2019-02-21T18:35:20.586Z,15.67
2019-02-21T18:38:01.478Z,21.27
2019-02-21T18:40:42.062Z,21.80
2019-02-21T18:43:22.839Z,28.87
2019-02-21T18:46:03.529Z,21.63
2019-02-21T18:48:44.014Z,23.13
2019-02-21T18:51:25.917Z,20.63
2019-02-21T18:54:07.150Z,26.90
2019-02-21T18:56:48.456Z,26.00
2019-02-21T18:59:31.828Z,29.63
2019-02-21T19:02:19.816Z,30.90
2019-02-21T19:05:01.011Z,35.03
2019-02-21T19:07:42.316Z,37.87
2019-02-21T19:10:23.312Z,34.30
2019-02-21T19:13:07.916Z,32.00
2019-02-21T19:15:49.238Z,30.80
2019-02-21T19:18:30.727Z,34.97
2019-02-21T19:21:11.745Z,32.27
2019-02-21T19:23:54.345Z,39.83
2019-02-21T19:26:56.724Z,34.70
2019-02-21T19:29:25.522Z,44.37
2019-02-21T19:32:07.567Z,38.00
2019-02-21T19:34:48.287Z,36.80
2019-02-21T19:37:29.424Z,34.73
2019-02-21T19:40:10.380Z,34.90
2019-02-21T19:42:51.409Z,34.90
2019-02-21T19:45:32.660Z,38.73
2019-02-21T19:48:13.531Z,40.87
2019-02-21T19:50:58.017Z,40.80
2019-02-21T19:53:39.802Z,38.63
2019-02-21T19:56:20.955Z,48.00
2019-02-21T19:59:01.890Z,50.17
2019-02-21T20:01:42.869Z,52.23
2019-02-21T20:04:23.767Z,47.43
2019-02-21T20:07:05.717Z,52.67
2019-02-21T20:09:47.460Z,48.60
2019-02-21T20:12:31.771Z,42.50
2019-02-21T20:15:12.798Z,50.67
2019-02-21T20:17:53.342Z,42.67
2019-02-21T20:20:34.864Z,39.17
2019-02-21T20:23:18.845Z,44.47
2019-02-21T20:25:59.798Z,41.70
2019-02-21T20:28:41.235Z,39.40
2019-02-21T20:31:22.753Z,40.23
2019-02-21T20:34:03.394Z,37.30
2019-02-21T20:36:51.136Z,40.87
2019-02-21T20:39:27.317Z,39.40
2019-02-21T20:42:09.099Z,43.93
2019-02-21T20:44:50.341Z,29.10
2019-02-21T20:47:31.424Z,33.60
2019-02-21T20:50:12.709Z,34.80
2019-02-21T20:52:53.881Z,40.57
2019-02-21T20:55:43.055Z,38.30
2019-02-21T20:58:17.929Z,43.37
2019-02-21T21:00:59.355Z,37.20
2019-02-21T21:03:39.732Z,41.40
2019-02-21T21:06:20.413Z,32.70
2019-02-21T21:09:01.319Z,42.63
2019-02-21T21:11:43.818Z,40.10
2019-02-21T21:14:26.286Z,38.90
2019-02-21T21:17:07.025Z,39.23
2019-02-21T21:19:47.854Z,39.27
2019-02-21T21:22:31.699Z,36.27
2019-02-21T21:25:12.483Z,33.53
2019-02-21T21:27:53.150Z,35.10
2019-02-21T21:30:33.864Z,33.83
2019-02-21T21:33:14.538Z,35.93
2019-02-21T21:35:55.766Z,38.70
2019-02-21T21:38:34.911Z,31.77
2019-02-21T21:41:18.418Z,35.17
2019-02-21T21:43:58.958Z,33.10
2019-02-21T21:46:40.011Z,35.73
2019-02-21T21:49:23.304Z,35.13
2019-02-21T21:52:04.976Z,36.73
2019-02-21T21:54:46.279Z,40.47
2019-02-21T21:57:27.391Z,38.93
2019-02-21T22:00:09.134Z,39.20
2019-02-21T22:02:49.598Z,40.37
2019-02-21T22:05:30.831Z,40.63
2019-02-21T22:11:15.424Z,38.50
2019-02-21T22:13:55.966Z,37.50
2019-02-21T22:16:37.100Z,29.97
2019-02-21T22:19:18.281Z,38.90
2019-02-21T22:22:01.688Z,39.87
2019-02-21T22:24:42.155Z,37.10
2019-02-21T22:27:21.363Z,33.30
2019-02-21T22:30:02.735Z,40.93
2019-02-21T22:32:43.860Z,31.47
2019-02-21T22:35:24.449Z,33.10
2019-02-21T22:38:05.426Z,35.80
2019-02-21T22:40:46.268Z,35.20
2019-02-21T22:43:27.110Z,35.23
2019-02-21T22:46:07.818Z,34.07
2019-02-21T22:48:48.495Z,30.97
2019-02-21T22:51:29.662Z,34.17
2019-02-21T22:54:10.260Z,24.70
2019-02-21T22:56:51.009Z,32.07
2019-02-21T22:59:31.836Z,27.73
2019-02-21T23:02:12.680Z,26.70
2019-02-21T23:04:53.342Z,25.27
2019-02-21T23:07:34.180Z,23.00
2019-02-21T23:10:15.124Z,37.30
2019-02-21T23:12:56.447Z,25.27
2019-02-21T23:15:37.166Z,20.97
2019-02-21T23:18:18.258Z,21.60
2019-02-21T23:20:58.982Z,24.50
2019-02-21T23:23:39.785Z,29.40
2019-02-21T23:26:20.591Z,24.60
2019-02-21T23:29:01.330Z,23.33
2019-02-21T23:31:42.256Z,22.77
2019-02-21T23:37:36.654Z,22.43
2019-02-21T23:40:17.146Z,21.63
2019-02-21T23:42:57.587Z,31.23
2019-02-21T23:45:38.290Z,18.93
2019-02-21T23:48:18.815Z,19.47
2019-02-21T23:50:59.973Z,21.50
2019-02-21T23:53:40.717Z,18.70
2019-02-21T23:56:21.722Z,19.27
2019-02-21T23:59:02.629Z,17.53
